sensor_id;sensor_type;location;lat;lon;timestamp;pressure;altitude;pressure_sealevel;temperature;humidity
21520;BME280;10921;53.614;9.882;2023-01-23T00:01:04;103401.16;;;5.40;76.99
21520;BME280;10921;53.614;9.882;2023-01-23T00:03:32;103406.50;;;5.39;77.10
21520;BME280;10921;53.614;9.882;2023-01-23T00:06:04;103418.88;;;5.38;77.56
21520;BME280;10921;53.614;9.882;2023-01-23T00:08:32;103412.81;;;5.35;77.10
21520;BME280;10921;53.614;9.882;2023-01-23T00:10:58;103413.66;;;5.35;77.14
21520;BME280;10921;53.614;9.882;2023-01-23T00:13:25;103403.44;;;5.23;76.97
21520;BME280;10921;53.614;9.882;2023-01-23T00:15:51;103412.00;;;5.33;76.91
21520;BME280;10921;53.614;9.882;2023-01-23T00:18:18;103400.81;;;5.21;77.13
21520;BME280;10921;53.614;9.882;2023-01-23T00:20:44;103423.50;;;5.32;77.12
21520;BME280;10921;53.614;9.882;2023-01-23T00:23:11;103420.00;;;5.29;77.43
21520;BME280;10921;53.614;9.882;2023-01-23T00:25:38;103426.22;;;5.28;77.78
21520;BME280;10921;53.614;9.882;2023-01-23T00:28:04;103423.56;;;5.28;77.40
21520;BME280;10921;53.614;9.882;2023-01-23T00:30:32;103428.94;;;5.25;77.94
21520;BME280;10921;53.614;9.882;2023-01-23T00:32:59;103430.66;;;5.28;77.20
21520;BME280;10921;53.614;9.882;2023-01-23T00:35:25;103425.44;;;5.25;77.62
21520;BME280;10921;53.614;9.882;2023-01-23T00:37:52;103434.44;;;5.19;78.02
21520;BME280;10921;53.614;9.882;2023-01-23T00:40:18;103431.63;;;5.24;77.82
21520;BME280;10921;53.614;9.882;2023-01-23T00:42:45;103429.81;;;5.26;77.24
21520;BME280;10921;53.614;9.882;2023-01-23T00:45:12;103422.88;;;5.22;77.43
21520;BME280;10921;53.614;9.882;2023-01-23T00:47:38;103423.84;;;5.19;77.69
21520;BME280;10921;53.614;9.882;2023-01-23T00:50:05;103434.44;;;5.19;77.76
21520;BME280;10921;53.614;9.882;2023-01-23T00:52:31;103432.63;;;5.20;77.56
21520;BME280;10921;53.614;9.882;2023-01-23T00:54:58;103434.47;;;5.18;77.53
21520;BME280;10921;53.614;9.882;2023-01-23T00:57:24;103433.56;;;5.19;77.54
21520;BME280;10921;53.614;9.882;2023-01-23T00:59:51;103439.81;;;5.16;77.35
21520;BME280;10921;53.614;9.882;2023-01-23T01:02:17;103440.72;;;5.15;77.77
21520;BME280;10921;53.614;9.882;2023-01-23T01:04:44;103442.53;;;5.13;77.75
21520;BME280;10921;53.614;9.882;2023-01-23T01:07:10;103443.41;;;5.14;77.56
21520;BME280;10921;53.614;9.882;2023-01-23T01:09:37;103435.63;;;5.08;77.86
21520;BME280;10921;53.614;9.882;2023-01-23T01:12:03;103445.31;;;5.09;77.92
21520;BME280;10921;53.614;9.882;2023-01-23T01:14:30;103442.59;;;5.12;78.14
21520;BME280;10921;53.614;9.882;2023-01-23T01:16:56;103436.41;;;5.11;77.81
21520;BME280;10921;53.614;9.882;2023-01-23T01:19:23;103437.31;;;5.10;77.23
21520;BME280;10921;53.614;9.882;2023-01-23T01:21:50;103442.66;;;5.09;77.52
21520;BME280;10921;53.614;9.882;2023-01-23T01:24:17;103438.44;;;5.03;77.81
21520;BME280;10921;53.614;9.882;2023-01-23T01:26:43;103449.69;;;5.10;77.79
21520;BME280;10921;53.614;9.882;2023-01-23T01:29:10;103444.41;;;5.10;77.72
21520;BME280;10921;53.614;9.882;2023-01-23T01:31:36;103451.44;;;5.11;77.51
21520;BME280;10921;53.614;9.882;2023-01-23T01:34:03;103452.34;;;5.10;77.61
21520;BME280;10921;53.614;9.882;2023-01-23T01:36:29;103461.19;;;5.09;77.72
21520;BME280;10921;53.614;9.882;2023-01-23T01:38:56;103457.88;;;5.02;77.46
21520;BME280;10921;53.614;9.882;2023-01-23T01:41:23;103463.00;;;5.07;77.65
21520;BME280;10921;53.614;9.882;2023-01-23T01:43:49;103472.59;;;5.11;77.42
21520;BME280;10921;53.614;9.882;2023-01-23T01:46:28;103472.66;;;5.09;78.20
21520;BME280;10921;53.614;9.882;2023-01-23T01:51:48;103474.47;;;5.07;78.32
21520;BME280;10921;53.614;9.882;2023-01-23T01:54:34;103470.94;;;5.07;78.19
21520;BME280;10921;53.614;9.882;2023-01-23T01:57:39;103473.81;;;4.99;78.30
21520;BME280;10921;53.614;9.882;2023-01-23T02:02:43;103464.25;;;4.93;79.05
21520;BME280;10921;53.614;9.882;2023-01-23T02:05:17;103479.13;;;4.99;78.35
21520;BME280;10921;53.614;9.882;2023-01-23T02:07:50;103478.25;;;4.99;78.59
21520;BME280;10921;53.614;9.882;2023-01-23T02:10:21;103472.16;;;4.95;78.53
21520;BME280;10921;53.614;9.882;2023-01-23T02:12:49;103476.47;;;4.99;78.62
21520;BME280;10921;53.614;9.882;2023-01-23T02:15:18;103464.97;;;5.00;78.57
21520;BME280;10921;53.614;9.882;2023-01-23T02:17:46;103471.22;;;4.98;78.70
21520;BME280;10921;53.614;9.882;2023-01-23T02:20:24;103472.06;;;4.98;79.39
21520;BME280;10921;53.614;9.882;2023-01-23T02:28:03;103466.75;;;5.00;78.64
21520;BME280;10921;53.614;9.882;2023-01-23T02:30:29;103475.56;;;5.00;78.45
21520;BME280;10921;53.614;9.882;2023-01-23T02:33:56;103473.69;;;5.04;79.24
21520;BME280;10921;53.614;9.882;2023-01-23T02:35:58;103468.44;;;5.02;78.46
21520;BME280;10921;53.614;9.882;2023-01-23T02:38:28;103471.97;;;5.03;78.66
21520;BME280;10921;53.614;9.882;2023-01-23T02:40:58;103472.88;;;5.02;78.77
21520;BME280;10921;53.614;9.882;2023-01-23T02:43:28;103468.41;;;5.04;78.67
21520;BME280;10921;53.614;9.882;2023-01-23T02:46:09;103472.72;;;5.06;79.17
21520;BME280;10921;53.614;9.882;2023-01-23T02:48:37;103449.25;;;4.94;78.75
21520;BME280;10921;53.614;9.882;2023-01-23T02:51:06;103450.00;;;4.99;78.54
21520;BME280;10921;53.614;9.882;2023-01-23T02:53:32;103459.59;;;5.03;78.68
21520;BME280;10921;53.614;9.882;2023-01-23T02:55:59;103455.09;;;5.05;78.66
21520;BME280;10921;53.614;9.882;2023-01-23T02:58:26;103456.94;;;5.03;78.46
21520;BME280;10921;53.614;9.882;2023-01-23T03:01:11;103450.16;;;4.93;78.46
21520;BME280;10921;53.614;9.882;2023-01-23T03:03:37;103441.53;;;4.86;78.36
21520;BME280;10921;53.614;9.882;2023-01-23T03:06:08;103456.19;;;4.98;78.45
21520;BME280;10921;53.614;9.882;2023-01-23T03:08:34;103463.22;;;4.99;78.49
21520;BME280;10921;53.614;9.882;2023-01-23T03:11:03;103451.91;;;4.94;78.89
21520;BME280;10921;53.614;9.882;2023-01-23T03:13:29;103459.69;;;5.00;78.70
21520;BME280;10921;53.614;9.882;2023-01-23T03:15:56;103456.25;;;4.97;78.81
21520;BME280;10921;53.614;9.882;2023-01-23T03:18:24;103454.38;;;5.00;78.78
21520;BME280;10921;53.614;9.882;2023-01-23T03:20:53;103468.59;;;4.96;78.55
21520;BME280;10921;53.614;9.882;2023-01-23T03:23:19;103464.19;;;4.97;78.74
21520;BME280;10921;53.614;9.882;2023-01-23T03:25:46;103453.00;;;4.87;78.75
21520;BME280;10921;53.614;9.882;2023-01-23T03:28:14;103459.03;;;4.90;78.82
21520;BME280;10921;53.614;9.882;2023-01-23T03:30:59;103483.63;;;4.95;79.05
21520;BME280;10921;53.614;9.882;2023-01-23T03:33:25;103493.31;;;4.95;78.97
21520;BME280;10921;53.614;9.882;2023-01-23T03:35:52;103495.13;;;4.93;79.06
21520;BME280;10921;53.614;9.882;2023-01-23T03:38:18;103494.28;;;4.92;78.78
21520;BME280;10921;53.614;9.882;2023-01-23T03:40:49;103501.38;;;4.90;79.29
21520;BME280;10921;53.614;9.882;2023-01-23T03:43:34;103497.97;;;4.87;79.19
21520;BME280;10921;53.614;9.882;2023-01-23T03:46:00;103502.44;;;4.85;79.03
21520;BME280;10921;53.614;9.882;2023-01-23T03:48:27;103498.94;;;4.83;79.10
21520;BME280;10921;53.614;9.882;2023-01-23T03:50:53;103498.97;;;4.81;79.28
21520;BME280;10921;53.614;9.882;2023-01-23T03:53:20;103500.75;;;4.81;79.27
21520;BME280;10921;53.614;9.882;2023-01-23T03:55:47;103501.63;;;4.81;79.38
21520;BME280;10921;53.614;9.882;2023-01-23T03:58:13;103502.50;;;4.82;79.34
21520;BME280;10921;53.614;9.882;2023-01-23T04:00:39;103484.22;;;4.73;79.41
21520;BME280;10921;53.614;9.882;2023-01-23T04:03:06;103496.34;;;4.81;79.38
21520;BME280;10921;53.614;9.882;2023-01-23T04:05:34;103501.59;;;4.83;79.16
21520;BME280;10921;53.614;9.882;2023-01-23T04:08:00;103491.09;;;4.80;79.29
21520;BME280;10921;53.614;9.882;2023-01-23T04:10:27;103510.41;;;4.83;79.27
21520;BME280;10921;53.614;9.882;2023-01-23T04:12:53;103511.31;;;4.82;79.41
21520;BME280;10921;53.614;9.882;2023-01-23T04:15:20;103506.91;;;4.81;79.24
21520;BME280;10921;53.614;9.882;2023-01-23T04:17:46;103506.91;;;4.81;79.35
21520;BME280;10921;53.614;9.882;2023-01-23T04:20:13;103507.88;;;4.79;79.26
21520;BME280;10921;53.614;9.882;2023-01-23T04:22:40;103513.13;;;4.80;79.21
21520;BME280;10921;53.614;9.882;2023-01-23T04:25:07;103514.09;;;4.76;79.20
21520;BME280;10921;53.614;9.882;2023-01-23T04:27:33;103522.84;;;4.80;79.05
21520;BME280;10921;53.614;9.882;2023-01-23T04:30:00;103522.06;;;4.75;78.83
21520;BME280;10921;53.614;9.882;2023-01-23T04:32:26;103528.16;;;4.78;78.94
21520;BME280;10921;53.614;9.882;2023-01-23T04:34:53;103531.75;;;4.76;79.19
21520;BME280;10921;53.614;9.882;2023-01-23T04:37:19;103522.91;;;4.77;79.03
21520;BME280;10921;53.614;9.882;2023-01-23T04:39:46;103527.34;;;4.75;78.63
21520;BME280;10921;53.614;9.882;2023-01-23T04:42:13;103524.69;;;4.76;78.98
21520;BME280;10921;53.614;9.882;2023-01-23T04:44:39;103523.81;;;4.76;78.73
21520;BME280;10921;53.614;9.882;2023-01-23T04:47:05;103512.50;;;4.71;78.99
21520;BME280;10921;53.614;9.882;2023-01-23T04:49:32;103528.22;;;4.75;78.80
21520;BME280;10921;53.614;9.882;2023-01-23T04:51:58;103516.78;;;4.75;79.12
21520;BME280;10921;53.614;9.882;2023-01-23T04:54:25;103527.28;;;4.78;78.88
21520;BME280;10921;53.614;9.882;2023-01-23T04:56:52;103529.94;;;4.78;78.92
21520;BME280;10921;53.614;9.882;2023-01-23T04:59:19;103529.88;;;4.81;78.84
21520;BME280;10921;53.614;9.882;2023-01-23T05:01:46;103508.06;;;4.71;78.74
21520;BME280;10921;53.614;9.882;2023-01-23T05:04:13;103524.56;;;4.81;78.80
21520;BME280;10921;53.614;9.882;2023-01-23T05:06:39;103532.50;;;4.81;78.84
21520;BME280;10921;53.614;9.882;2023-01-23T05:09:06;103523.78;;;4.77;78.81
21520;BME280;10921;53.614;9.882;2023-01-23T05:11:33;103534.31;;;4.79;78.93
21520;BME280;10921;53.614;9.882;2023-01-23T05:14:00;103529.97;;;4.76;79.07
21520;BME280;10921;53.614;9.882;2023-01-23T05:16:26;103536.16;;;4.75;79.39
21520;BME280;10921;53.614;9.882;2023-01-23T05:18:53;103539.69;;;4.76;79.45
21520;BME280;10921;53.614;9.882;2023-01-23T05:21:19;103545.84;;;4.76;79.30
21520;BME280;10921;53.614;9.882;2023-01-23T05:23:45;103536.34;;;4.69;79.14
21520;BME280;10921;53.614;9.882;2023-01-23T05:26:12;103539.69;;;4.76;79.33
21520;BME280;10921;53.614;9.882;2023-01-23T05:28:38;103545.00;;;4.74;79.05
21520;BME280;10921;53.614;9.882;2023-01-23T05:31:05;103551.06;;;4.79;79.38
21520;BME280;10921;53.614;9.882;2023-01-23T05:33:32;103558.13;;;4.79;79.58
21520;BME280;10921;53.614;9.882;2023-01-23T05:35:59;103560.78;;;4.79;79.56
21520;BME280;10921;53.614;9.882;2023-01-23T05:38:25;103556.34;;;4.79;79.38
21520;BME280;10921;53.614;9.882;2023-01-23T05:40:52;103564.31;;;4.78;79.65
21520;BME280;10921;53.614;9.882;2023-01-23T05:43:19;103536.53;;;4.60;79.50
21520;BME280;10921;53.614;9.882;2023-01-23T05:45:45;103573.25;;;4.74;79.63
21520;BME280;10921;53.614;9.882;2023-01-23T05:48:12;103583.81;;;4.74;79.91
21520;BME280;10921;53.614;9.882;2023-01-23T05:50:39;103582.13;;;4.73;80.06
21520;BME280;10921;53.614;9.882;2023-01-23T05:53:05;103582.00;;;4.76;79.82
21520;BME280;10921;53.614;9.882;2023-01-23T05:55:32;103581.13;;;4.75;80.17
21520;BME280;10921;53.614;9.882;2023-01-23T05:57:58;103579.38;;;4.76;80.02
21520;BME280;10921;53.614;9.882;2023-01-23T06:00:25;103569.75;;;4.73;79.88
21520;BME280;10921;53.614;9.882;2023-01-23T06:02:52;103580.13;;;4.81;79.81
21520;BME280;10921;53.614;9.882;2023-01-23T06:05:18;103585.34;;;4.84;79.91
21520;BME280;10921;53.614;9.882;2023-01-23T06:07:45;103581.72;;;4.88;79.86
21520;BME280;10921;53.614;9.882;2023-01-23T06:10:11;103579.03;;;4.89;79.53
21520;BME280;10921;53.614;9.882;2023-01-23T06:12:38;103585.25;;;4.88;79.81
21520;BME280;10921;53.614;9.882;2023-01-23T06:15:05;103588.72;;;4.89;79.86
21520;BME280;10921;53.614;9.882;2023-01-23T06:17:31;103573.94;;;4.82;79.93
21520;BME280;10921;53.614;9.882;2023-01-23T06:19:58;103592.22;;;4.91;79.91
21520;BME280;10921;53.614;9.882;2023-01-23T06:22:24;103594.84;;;4.91;79.90
21520;BME280;10921;53.614;9.882;2023-01-23T06:24:51;103592.16;;;4.94;79.82
21520;BME280;10921;53.614;9.882;2023-01-23T06:27:18;103600.09;;;4.94;79.77
21520;BME280;10921;53.614;9.882;2023-01-23T06:29:44;103588.66;;;4.92;79.80
21520;BME280;10921;53.614;9.882;2023-01-23T06:32:11;103596.56;;;4.93;79.81
21520;BME280;10921;53.614;9.882;2023-01-23T06:34:38;103587.72;;;4.94;79.57
21520;BME280;10921;53.614;9.882;2023-01-23T06:37:04;103607.13;;;4.95;79.71
21520;BME280;10921;53.614;9.882;2023-01-23T06:39:31;103601.81;;;4.95;79.69
21520;BME280;10921;53.614;9.882;2023-01-23T06:41:59;103605.31;;;4.97;79.64
21520;BME280;10921;53.614;9.882;2023-01-23T06:44:26;103588.84;;;4.86;79.39
21520;BME280;10921;53.614;9.882;2023-01-23T06:46:52;103603.53;;;4.98;79.68
21520;BME280;10921;53.614;9.882;2023-01-23T06:49:19;103591.53;;;4.84;79.57
21520;BME280;10921;53.614;9.882;2023-01-23T06:51:46;103612.38;;;4.97;79.74
21520;BME280;10921;53.614;9.882;2023-01-23T06:54:12;103610.63;;;4.95;79.85
21520;BME280;10921;53.614;9.882;2023-01-23T06:56:38;103613.28;;;4.95;79.83
21520;BME280;10921;53.614;9.882;2023-01-23T06:59:05;103602.72;;;4.94;79.71
21520;BME280;10921;53.614;9.882;2023-01-23T07:01:31;103617.75;;;4.93;79.55
21520;BME280;10921;53.614;9.882;2023-01-23T07:03:58;103609.81;;;4.93;79.92
21520;BME280;10921;53.614;9.882;2023-01-23T07:06:24;103615.94;;;4.95;79.87
21520;BME280;10921;53.614;9.882;2023-01-23T07:08:51;103602.94;;;4.86;79.73
21520;BME280;10921;53.614;9.882;2023-01-23T07:11:17;103628.22;;;4.98;79.77
21520;BME280;10921;53.614;9.882;2023-01-23T07:13:44;103596.00;;;4.81;79.83
21520;BME280;10921;53.614;9.882;2023-01-23T07:16:11;103621.19;;;4.97;79.86
21520;BME280;10921;53.614;9.882;2023-01-23T07:18:37;103627.41;;;4.94;80.03
21520;BME280;10921;53.614;9.882;2023-01-23T07:21:04;103633.59;;;4.95;80.21
21520;BME280;10921;53.614;9.882;2023-01-23T07:23:32;103640.69;;;4.93;80.16
21520;BME280;10921;53.614;9.882;2023-01-23T07:26:03;103640.63;;;4.96;80.20
21520;BME280;10921;53.614;9.882;2023-01-23T07:28:32;103638.84;;;4.97;80.34
21520;BME280;10921;53.614;9.882;2023-01-23T07:30:58;103635.28;;;4.98;80.17
21520;BME280;10921;53.614;9.882;2023-01-23T07:33:25;103629.13;;;4.97;80.23
21520;BME280;10921;53.614;9.882;2023-01-23T07:35:52;103646.81;;;4.95;80.27
21520;BME280;10921;53.614;9.882;2023-01-23T07:38:19;103631.06;;;4.89;80.18
21520;BME280;10921;53.614;9.882;2023-01-23T07:40:46;103630.31;;;4.85;80.29
21520;BME280;10921;53.614;9.882;2023-01-23T07:43:12;103652.94;;;4.97;80.33
21520;BME280;10921;53.614;9.882;2023-01-23T07:45:38;103654.66;;;5.00;80.36
21520;BME280;10921;53.614;9.882;2023-01-23T07:48:05;103656.41;;;5.01;80.43
21520;BME280;10921;53.614;9.882;2023-01-23T07:50:32;103659.03;;;5.01;80.45
21520;BME280;10921;53.614;9.882;2023-01-23T07:52:58;103635.53;;;4.88;80.42
21520;BME280;10921;53.614;9.882;2023-01-23T07:55:25;103661.56;;;5.05;80.44
21520;BME280;10921;53.614;9.882;2023-01-23T07:57:52;103666.81;;;5.07;80.26
21520;BME280;10921;53.614;9.882;2023-01-23T08:00:19;103664.13;;;5.08;80.31
21520;BME280;10921;53.614;9.882;2023-01-23T08:02:49;103660.66;;;5.06;80.39
21520;BME280;10921;53.614;9.882;2023-01-23T08:05:16;103664.09;;;5.10;80.10
21520;BME280;10921;53.614;9.882;2023-01-23T08:07:42;103666.72;;;5.11;80.25
21520;BME280;10921;53.614;9.882;2023-01-23T08:10:09;103662.38;;;5.07;80.23
21520;BME280;10921;53.614;9.882;2023-01-23T08:12:36;103686.09;;;5.12;80.18
21520;BME280;10921;53.614;9.882;2023-01-23T08:15:03;103657.34;;;4.98;80.36
21520;BME280;10921;53.614;9.882;2023-01-23T08:17:30;103691.38;;;5.13;80.14
21520;BME280;10921;53.614;9.882;2023-01-23T08:19:56;103696.63;;;5.15;80.63
21520;BME280;10921;53.614;9.882;2023-01-23T08:22:23;103697.47;;;5.17;80.23
21520;BME280;10921;53.614;9.882;2023-01-23T08:24:49;103697.44;;;5.18;80.27
21520;BME280;10921;53.614;9.882;2023-01-23T08:27:16;103697.38;;;5.20;80.24
21520;BME280;10921;53.614;9.882;2023-01-23T08:29:42;103695.66;;;5.19;80.26
21520;BME280;10921;53.614;9.882;2023-01-23T08:32:09;103703.47;;;5.23;80.51
21520;BME280;10921;53.614;9.882;2023-01-23T08:34:35;103705.25;;;5.23;80.26
21520;BME280;10921;53.614;9.882;2023-01-23T08:37:03;103706.88;;;5.28;80.37
21520;BME280;10921;53.614;9.882;2023-01-23T08:39:29;103693.72;;;5.25;80.31
21520;BME280;10921;53.614;9.882;2023-01-23T08:41:56;103705.91;;;5.33;80.08
21520;BME280;10921;53.614;9.882;2023-01-23T08:44:23;103695.28;;;5.34;80.05
21520;BME280;10921;53.614;9.882;2023-01-23T08:46:49;103704.94;;;5.35;79.80
21520;BME280;10921;53.614;9.882;2023-01-23T08:49:16;103709.25;;;5.39;79.74
21520;BME280;10921;53.614;9.882;2023-01-23T08:51:45;103698.00;;;5.31;79.80
21520;BME280;10921;53.614;9.882;2023-01-23T08:54:12;103712.69;;;5.43;79.51
21520;BME280;10921;53.614;9.882;2023-01-23T08:56:38;103721.47;;;5.45;79.50
21520;BME280;10921;53.614;9.882;2023-01-23T08:59:06;103706.56;;;5.41;79.44
21520;BME280;10921;53.614;9.882;2023-01-23T09:01:33;103717.06;;;5.45;79.32
21520;BME280;10921;53.614;9.882;2023-01-23T09:04:00;103707.44;;;5.41;79.25
21520;BME280;10921;53.614;9.882;2023-01-23T09:06:26;103709.19;;;5.42;79.39
21520;BME280;10921;53.614;9.882;2023-01-23T09:08:53;103718.94;;;5.40;79.09
21520;BME280;10921;53.614;9.882;2023-01-23T09:11:20;103723.34;;;5.41;79.37
21520;BME280;10921;53.614;9.882;2023-01-23T09:13:48;103725.97;;;5.41;79.64
21520;BME280;10921;53.614;9.882;2023-01-23T09:16:17;103724.16;;;5.43;79.58
21520;BME280;10921;53.614;9.882;2023-01-23T09:18:44;103715.38;;;5.41;79.76
21520;BME280;10921;53.614;9.882;2023-01-23T09:21:14;103702.19;;;5.40;80.16
21520;BME280;10921;53.614;9.882;2023-01-23T09:23:41;103714.22;;;5.51;79.65
21520;BME280;10921;53.614;9.882;2023-01-23T09:26:10;103720.28;;;5.56;79.74
21520;BME280;10921;53.614;9.882;2023-01-23T09:28:38;103721.09;;;5.60;79.37
21520;BME280;10921;53.614;9.882;2023-01-23T09:31:11;103719.22;;;5.65;79.80
21520;BME280;10921;53.614;9.882;2023-01-23T09:33:38;103718.19;;;5.69;79.22
21520;BME280;10921;53.614;9.882;2023-01-23T09:36:06;103725.16;;;5.73;79.52
21520;BME280;10921;53.614;9.882;2023-01-23T09:38:33;103727.66;;;5.79;79.49
21520;BME280;10921;53.614;9.882;2023-01-23T09:41:07;103714.34;;;5.81;80.00
21520;BME280;10921;53.614;9.882;2023-01-23T09:43:40;103710.78;;;5.82;79.49
21520;BME280;10921;53.614;9.882;2023-01-23T09:46:35;103718.31;;;5.98;80.02
21520;BME280;10921;53.614;9.882;2023-01-23T09:49:19;103718.31;;;5.98;78.93
21520;BME280;10921;53.614;9.882;2023-01-23T09:52:06;103714.72;;;6.01;78.05
21520;BME280;10921;53.614;9.882;2023-01-23T09:54:44;103723.34;;;6.09;78.78
21520;BME280;10921;53.614;9.882;2023-01-23T09:57:24;103717.88;;;6.14;78.77
21520;BME280;10921;53.614;9.882;2023-01-23T10:00:00;103717.81;;;6.17;78.38
21520;BME280;10921;53.614;9.882;2023-01-23T10:02:29;103714.22;;;6.19;77.95
21520;BME280;10921;53.614;9.882;2023-01-23T10:04:57;103704.56;;;6.17;77.91
21520;BME280;10921;53.614;9.882;2023-01-23T10:10:14;103708.34;;;6.39;78.60
21520;BME280;10921;53.614;9.882;2023-01-23T10:15:49;103704.50;;;6.49;77.29
21520;BME280;10921;53.614;9.882;2023-01-23T10:18:17;103695.44;;;6.56;76.94
21520;BME280;10921;53.614;9.882;2023-01-23T10:26:02;103679.31;;;6.62;75.80
21520;BME280;10921;53.614;9.882;2023-01-23T10:28:34;103675.63;;;6.68;76.21
21520;BME280;10921;53.614;9.882;2023-01-23T10:31:11;103697.19;;;6.85;75.62
21520;BME280;10921;53.614;9.882;2023-01-23T10:34:27;103707.22;;;7.03;76.01
21520;BME280;10921;53.614;9.882;2023-01-23T10:36:53;103708.28;;;6.98;75.42
21520;BME280;10921;53.614;9.882;2023-01-23T10:39:29;103677.75;;;6.85;74.74
21520;BME280;10921;53.614;9.882;2023-01-23T10:41:58;103712.66;;;7.00;73.56
21520;BME280;10921;53.614;9.882;2023-01-23T10:44:28;103711.56;;;7.06;73.67
21520;BME280;10921;53.614;9.882;2023-01-23T10:47:00;103711.47;;;7.09;74.01
21520;BME280;10921;53.614;9.882;2023-01-23T10:49:31;103714.84;;;7.14;73.49
21520;BME280;10921;53.614;9.882;2023-01-23T10:51:58;103713.91;;;7.17;73.59
21520;BME280;10921;53.614;9.882;2023-01-23T10:54:26;103716.44;;;7.20;72.75
21520;BME280;10921;53.614;9.882;2023-01-23T10:57:01;103708.31;;;7.24;72.26
21520;BME280;10921;53.614;9.882;2023-01-23T10:59:35;103715.22;;;7.30;72.88
21520;BME280;10921;53.614;9.882;2023-01-23T11:04:40;103717.88;;;7.30;71.30
21520;BME280;10921;53.614;9.882;2023-01-23T11:07:22;103718.59;;;7.35;72.63
21520;BME280;10921;53.614;9.882;2023-01-23T11:09:58;103722.94;;;7.37;72.20
21520;BME280;10921;53.614;9.882;2023-01-23T11:12:30;103724.66;;;7.38;71.22
21520;BME280;10921;53.614;9.882;2023-01-23T11:15:24;103728.06;;;7.44;72.19
21520;BME280;10921;53.614;9.882;2023-01-23T11:17:53;103714.97;;;7.37;70.67
21520;BME280;10921;53.614;9.882;2023-01-23T11:25:42;103723.59;;;7.44;70.89
21520;BME280;10921;53.614;9.882;2023-01-23T11:28:31;103730.56;;;7.48;70.95
21520;BME280;10921;53.614;9.882;2023-01-23T11:31:12;103729.75;;;7.46;71.03
21520;BME280;10921;53.614;9.882;2023-01-23T11:36:28;103733.41;;;7.42;69.67
21520;BME280;10921;53.614;9.882;2023-01-23T11:41:43;103730.94;;;7.36;69.52
21520;BME280;10921;53.614;9.882;2023-01-23T11:44:15;103716.19;;;7.27;70.43
21520;BME280;10921;53.614;9.882;2023-01-23T11:55:24;103743.41;;;7.34;69.36
21520;BME280;10921;53.614;9.882;2023-01-23T12:00:46;103736.47;;;7.30;69.29
21520;BME280;10921;53.614;9.882;2023-01-23T12:15:09;103733.00;;;7.28;69.56
21520;BME280;10921;53.614;9.882;2023-01-23T12:23:12;103727.72;;;7.26;69.71
21520;BME280;10921;53.614;9.882;2023-01-23T12:25:49;103703.38;;;7.14;69.43
21520;BME280;10921;53.614;9.882;2023-01-23T12:33:45;103732.13;;;7.27;69.75
21520;BME280;10921;53.614;9.882;2023-01-23T12:36:56;103732.03;;;7.30;70.02
21520;BME280;10921;53.614;9.882;2023-01-23T12:40:11;103730.19;;;7.32;69.78
21520;BME280;10921;53.614;9.882;2023-01-23T12:43:08;103731.91;;;7.33;69.68
21520;BME280;10921;53.614;9.882;2023-01-23T12:45:36;103722.50;;;7.23;68.75
21520;BME280;10921;53.614;9.882;2023-01-23T12:48:13;103737.41;;;7.29;69.53
21520;BME280;10921;53.614;9.882;2023-01-23T12:50:45;103737.41;;;7.29;69.49
21520;BME280;10921;53.614;9.882;2023-01-23T12:53:18;103733.78;;;7.31;69.53
21520;BME280;10921;53.614;9.882;2023-01-23T12:58:33;103732.84;;;7.32;68.50
21520;BME280;10921;53.614;9.882;2023-01-23T13:03:37;103721.28;;;7.33;68.41
21520;BME280;10921;53.614;9.882;2023-01-23T13:06:30;103721.19;;;7.36;69.09
21520;BME280;10921;53.614;9.882;2023-01-23T13:09:15;103722.88;;;7.39;69.10
21520;BME280;10921;53.614;9.882;2023-01-23T13:12:04;103716.69;;;7.38;68.66
21520;BME280;10921;53.614;9.882;2023-01-23T13:14:39;103722.09;;;7.35;68.33
21520;BME280;10921;53.614;9.882;2023-01-23T13:23:38;103735.09;;;7.45;68.46
21520;BME280;10921;53.614;9.882;2023-01-23T13:26:23;103733.31;;;7.45;69.41
21520;BME280;10921;53.614;9.882;2023-01-23T13:28:56;103738.59;;;7.47;68.17
21520;BME280;10921;53.614;9.882;2023-01-23T13:34:01;103749.09;;;7.50;68.32
21520;BME280;10921;53.614;9.882;2023-01-23T13:36:42;103749.09;;;7.50;68.30
21520;BME280;10921;53.614;9.882;2023-01-23T13:41:38;103756.13;;;7.51;68.14
21520;BME280;10921;53.614;9.882;2023-01-23T13:44:22;103757.00;;;7.51;69.00
21520;BME280;10921;53.614;9.882;2023-01-23T13:52:52;103765.34;;;7.40;69.21
21520;BME280;10921;53.614;9.882;2023-01-23T13:55:53;103759.34;;;7.34;68.78
21520;BME280;10921;53.614;9.882;2023-01-23T13:58:53;103759.53;;;7.29;68.58
21520;BME280;10921;53.614;9.882;2023-01-23T14:02:01;103765.84;;;7.25;69.32
21520;BME280;10921;53.614;9.882;2023-01-23T14:05:07;103750.88;;;7.23;69.49
21520;BME280;10921;53.614;9.882;2023-01-23T14:08:01;103753.66;;;7.18;70.04
21520;BME280;10921;53.614;9.882;2023-01-23T14:10:46;103734.59;;;7.05;69.58
21520;BME280;10921;53.614;9.882;2023-01-23T14:13:30;103760.13;;;7.10;69.41
21520;BME280;10921;53.614;9.882;2023-01-23T14:16:12;103745.16;;;7.07;69.60
21520;BME280;10921;53.614;9.882;2023-01-23T14:18:57;103743.44;;;7.06;69.98
21520;BME280;10921;53.614;9.882;2023-01-23T14:21:51;103738.94;;;7.08;70.52
21520;BME280;10921;53.614;9.882;2023-01-23T14:24:25;103743.47;;;7.04;70.26
21520;BME280;10921;53.614;9.882;2023-01-23T14:27:06;103736.34;;;7.06;70.59
21520;BME280;10921;53.614;9.882;2023-01-23T14:29:34;103744.03;;;7.16;70.02
21520;BME280;10921;53.614;9.882;2023-01-23T14:32:01;103746.25;;;7.01;69.73
21520;BME280;10921;53.614;9.882;2023-01-23T14:34:28;103729.09;;;6.84;70.06
21520;BME280;10921;53.614;9.882;2023-01-23T14:37:02;103758.75;;;6.98;70.62
21520;BME280;10921;53.614;9.882;2023-01-23T14:39:32;103755.25;;;6.96;70.26
21520;BME280;10921;53.614;9.882;2023-01-23T14:42:00;103756.19;;;6.95;70.45
21520;BME280;10921;53.614;9.882;2023-01-23T14:46:59;103756.72;;;7.06;70.90
21520;BME280;10921;53.614;9.882;2023-01-23T14:49:32;103754.41;;;6.95;70.60
21520;BME280;10921;53.614;9.882;2023-01-23T14:52:02;103763.31;;;6.93;70.54